84.3°F
Current conditions from King Hill
Updated every 5 minutes
 
  Tuesday September 2, 2014

Station Historical Data
Daily Summary for May 17, 2011 Units:  Metric    English   Both
« Previous Day
Next Day »
Daily Weekly Monthly Yearly Custom
  High: Low: Average:
Temperature: 17.6 °C 7.6 °C 12 °C
Dew Point: 14.6 °C 6.9 °C 10.7 °C
Humidity: 100% 80% 92%
Wind Speed: 8km/h 1.6km/h 2.9km/h
Wind Gust: 16.1km/h - -
Wind- - East
Pressure: 1018.8 hPa 1013.8 hPa -
Precipitation: 0 mm    
Historical Graphs
 
 
Tabular Data for May 17, 2011
Time Temperature Dew Point Pressure Wind Wind Speed Wind Gust Humidity Daily Rainfall
00:00 8.4 °C 7.8 °C 1013.8 hPa NE 1.6 km/h 6.4 km/h 96% 12.2 mm
00:05 8.3 °C 7.7 °C 1013.8 hPa Calm   6.4 km/h 96% 0 mm
00:10 8.3 °C 7.7 °C 1014.1 hPa Calm     96% 0 mm
00:15 8.3 °C 7.7 °C 1014.1 hPa Calm   3.2 km/h 96% 0 mm
00:20 8.3 °C 7.7 °C 1014.1 hPa Calm   3.2 km/h 96% 0 mm
00:25 8.3 °C 7.7 °C 1014.1 hPa Calm     96% 0 mm
00:30 8.3 °C 7.7 °C 1014.1 hPa NE 1.6 km/h 3.2 km/h 96% 0 mm
00:35 8.3 °C 7.7 °C 1014.1 hPa Calm   3.2 km/h 96% 0 mm
00:40 8.3 °C 7.7 °C 1014.1 hPa Calm   3.2 km/h 96% 0 mm
00:45 8.3 °C 7.7 °C 1014.1 hPa Calm   3.2 km/h 96% 0 mm
00:50 8.3 °C 7.7 °C 1014.1 hPa Calm     96% 0 mm
00:55 8.2 °C 7.6 °C 1014.1 hPa Calm     96% 0 mm
01:00 8.2 °C 7.6 °C 1014.1 hPa NE 1.6 km/h 3.2 km/h 96% 0 mm
01:05 8.2 °C 7.6 °C 1014.4 hPa Calm   3.2 km/h 96% 0 mm
01:10 8.1 °C 7.5 °C 1014.4 hPa Calm   3.2 km/h 96% 0 mm
01:15 8.1 °C 7.5 °C 1014.4 hPa Calm   3.2 km/h 96% 0 mm
01:20 8.1 °C 7.5 °C 1014.4 hPa Calm     96% 0 mm
01:25 8.2 °C 7.6 °C 1014.4 hPa Calm     96% 0 mm
01:30 8.1 °C 7.5 °C 1014.4 hPa Calm   3.2 km/h 96% 0 mm
01:35 8.1 °C 7.5 °C 1014.4 hPa Calm   3.2 km/h 96% 0 mm
01:40 8.1 °C 7.5 °C 1014.4 hPa Calm     96% 0 mm
01:45 8.1 °C 7.5 °C 1014.4 hPa Calm     96% 0 mm
01:50 8.1 °C 7.5 °C 1014.4 hPa Calm     96% 0 mm
01:55 8.1 °C 7.5 °C 1014.4 hPa NE 1.6 km/h 3.2 km/h 96% 0 mm
02:00 8.1 °C 7.4 °C 1014.8 hPa Calm   3.2 km/h 96% 0 mm
02:05 8.1 °C 7.4 °C 1014.8 hPa Calm   1.6 km/h 96% 0 mm
02:10 8.1 °C 7.4 °C 1014.8 hPa Calm     96% 0 mm
02:15 8 °C 7.4 °C 1014.8 hPa Calm     96% 0 mm
02:20 8 °C 7.4 °C 1014.8 hPa Calm     96% 0 mm
02:25 8 °C 7.4 °C 1014.8 hPa NE 1.6 km/h 3.2 km/h 96% 0 mm
02:30 7.9 °C 7.3 °C 1014.8 hPa Calm   3.2 km/h 96% 0 mm
02:35 7.9 °C 7.3 °C 1014.8 hPa Calm     96% 0 mm
02:40 7.9 °C 7.3 °C 1014.4 hPa Calm     96% 0 mm
02:45 7.9 °C 7.3 °C 1014.4 hPa Calm     96% 0 mm
02:50 7.9 °C 7.3 °C 1014.8 hPa Calm     96% 0 mm
02:55 7.9 °C 7.3 °C 1014.8 hPa Calm     96% 0 mm
03:00 7.9 °C 7.3 °C 1014.8 hPa Calm     96% 0 mm
03:05 7.9 °C 7.3 °C 1014.8 hPa Calm     96% 0 mm
03:10 7.9 °C 7.3 °C 1014.8 hPa Calm     96% 0 mm
03:15 7.9 °C 7.3 °C 1015.1 hPa Calm     96% 0 mm
03:20 7.9 °C 7.3 °C 1014.8 hPa Calm     96% 0 mm
03:25 7.9 °C 7.3 °C 1015.1 hPa Calm     96% 0 mm
03:30 7.9 °C 7.3 °C 1015.1 hPa Calm     96% 0 mm
03:35 7.9 °C 7.3 °C 1015.1 hPa Calm     96% 0 mm
03:40 7.9 °C 7.3 °C 1015.1 hPa Calm     96% 0 mm
03:45 7.9 °C 7.3 °C 1015.1 hPa Calm     96% 0 mm
03:50 7.9 °C 7.3 °C 1015.1 hPa Calm     96% 0 mm
03:55 7.9 °C 7.3 °C 1015.1 hPa Calm     96% 0 mm
04:00 7.9 °C 7.3 °C 1015.5 hPa Calm   1.6 km/h 96% 0 mm
04:05 7.8 °C 7.2 °C 1015.5 hPa Calm   1.6 km/h 96% 0 mm
04:10 7.8 °C 7.2 °C 1015.5 hPa Calm     96% 0 mm
04:15 7.8 °C 7.2 °C 1015.5 hPa Calm   3.2 km/h 96% 0 mm
04:20 7.8 °C 7.2 °C 1015.5 hPa Calm   3.2 km/h 96% 0 mm
04:25 7.7 °C 7.1 °C 1015.5 hPa Calm     96% 0 mm
04:30 7.7 °C 7.1 °C 1015.5 hPa Calm     96% 0 mm
04:35 7.7 °C 7.1 °C 1015.8 hPa Calm     96% 0 mm
04:40 7.6 °C 7 °C 1015.8 hPa Calm     96% 0 mm
04:45 7.6 °C 7 °C 1015.8 hPa Calm     96% 0 mm
04:50 7.6 °C 6.9 °C 1015.5 hPa Calm     96% 0 mm
04:55 7.6 °C 6.9 °C 1015.5 hPa Calm     96% 0 mm
05:00 7.6 °C 6.9 °C 1015.8 hPa Calm     96% 0 mm
05:05 7.6 °C 6.9 °C 1015.8 hPa Calm     96% 0 mm
05:10 7.6 °C 6.9 °C 1015.5 hPa Calm     96% 0 mm
05:15 7.6 °C 6.9 °C 1015.8 hPa Calm   3.2 km/h 96% 0 mm
05:20 7.6 °C 6.9 °C 1015.8 hPa Calm   3.2 km/h 96% 0 mm
05:30 7.6 °C 6.9 °C 1015.8 hPa Calm     96% 0 mm
05:35 7.6 °C 6.9 °C 1016.1 hPa Calm     96% 0 mm
05:40 7.6 °C 6.9 °C 1015.8 hPa Calm     96% 0 mm
05:45 7.6 °C 7 °C 1015.8 hPa Calm     96% 0 mm
05:50 7.6 °C 7 °C 1016.1 hPa Calm     96% 0 mm
06:00 7.7 °C 7.1 °C 1016.1 hPa Calm     96% 0 mm
06:05 7.7 °C 7.1 °C 1016.5 hPa Calm     96% 0 mm
06:10 7.7 °C 7.1 °C 1016.5 hPa Calm     96% 0 mm
06:15 7.7 °C 7.1 °C 1016.5 hPa Calm     96% 0 mm
06:20 7.7 °C 7.1 °C 1016.5 hPa Calm   1.6 km/h 96% 0 mm
06:25 7.8 °C 7.2 °C 1016.5 hPa Calm   1.6 km/h 96% 0 mm
06:30 7.8 °C 7.2 °C 1016.8 hPa NE 1.6 km/h 3.2 km/h 96% 0 mm
06:40 7.8 °C 7.2 °C 1016.8 hPa Calm     96% 0 mm
06:45 7.9 °C 7.3 °C 1016.8 hPa Calm     96% 0 mm
06:50 7.9 °C 7.5 °C 1016.8 hPa Calm     97% 0 mm
06:55 8 °C 7.6 °C 1016.8 hPa Calm   1.6 km/h 97% 0 mm
07:00 8.1 °C 7.6 °C 1016.8 hPa Calm   1.6 km/h 97% 0 mm
07:05 8.2 °C 7.6 °C 1017.2 hPa Calm     96% 0 mm
07:10 8.3 °C 7.9 °C 1017.2 hPa Calm     97% 0 mm
07:15 8.4 °C 7.9 °C 1017.2 hPa Calm     97% 0 mm
07:20 8.5 °C 8.1 °C 1017.5 hPa Calm     97% 0 mm
07:25 8.6 °C 7.9 °C 1017.5 hPa Calm     96% 0 mm
07:30 8.6 °C 8 °C 1017.5 hPa Calm   3.2 km/h 96% 0 mm
07:35 8.7 °C 8.2 °C 1017.5 hPa Calm   3.2 km/h 97% 0 mm
07:40 8.7 °C 8.3 °C 1017.5 hPa Calm   3.2 km/h 97% 0 mm
07:45 8.8 °C 8.4 °C 1017.5 hPa Calm   3.2 km/h 97% 0 mm
07:50 9 °C 8.6 °C 1017.5 hPa NE 1.6 km/h 4.8 km/h 97% 0 mm
07:55 9 °C 9 °C 1017.5 hPa Calm   4.8 km/h 100% 0 mm
08:00 9.1 °C 8.6 °C 1017.8 hPa Calm   1.6 km/h 97% 0 mm
08:05 9.2 °C 8.7 °C 1017.8 hPa Calm   1.6 km/h 97% 0 mm
08:10 9.3 °C 8.8 °C 1017.8 hPa Calm     97% 0 mm
08:20 9.3 °C 8.8 °C 1017.8 hPa Calm   4.8 km/h 97% 0 mm
08:25 9.3 °C 8.8 °C 1017.8 hPa Calm   4.8 km/h 97% 0 mm
08:30 9.5 °C 9.1 °C 1018.2 hPa Calm   1.6 km/h 97% 0 mm
08:35 9.8 °C 9.4 °C 1018.2 hPa Calm   1.6 km/h 97% 0 mm
08:40 10.1 °C 9.7 °C 1018.2 hPa Calm   1.6 km/h 97% 0 mm
08:45 10.1 °C 9.7 °C 1018.2 hPa Calm   4.8 km/h 97% 0 mm
08:50 10.1 °C 9.7 °C 1018.2 hPa Calm   4.8 km/h 97% 0 mm
08:55 10.2 °C 9.7 °C 1018.2 hPa Calm   3.2 km/h 97% 0 mm
09:00 10.2 °C 9.8 °C 1018.2 hPa Calm   3.2 km/h 97% 0 mm
09:05 10.4 °C 10 °C 1018.2 hPa Calm   1.6 km/h 97% 0 mm
09:10 10.6 °C 10.1 °C 1018.2 hPa Calm   3.2 km/h 97% 0 mm
09:15 10.6 °C 10.1 °C 1018.2 hPa NE 3.2 km/h 4.8 km/h 97% 0 mm
09:20 10.6 °C 10.2 °C 1018.2 hPa Calm   4.8 km/h 97% 0 mm
09:25 10.7 °C 10.3 °C 1018.2 hPa Calm   4.8 km/h 97% 0 mm
09:30 10.7 °C 10.3 °C 1018.5 hPa NE 3.2 km/h 6.4 km/h 97% 0 mm
09:35 10.3 °C 9.9 °C 1018.5 hPa NE 1.6 km/h 6.4 km/h 97% 0 mm
09:40 10.3 °C 9.9 °C 1018.5 hPa Calm   4.8 km/h 97% 0 mm
09:45 10.4 °C 10 °C 1018.5 hPa Calm   4.8 km/h 97% 0 mm
09:50 10.5 °C 10.1 °C 1018.5 hPa Calm     97% 0 mm
09:55 10.6 °C 10.1 °C 1018.5 hPa Calm     97% 0 mm
10:00 10.6 °C 10.2 °C 1018.5 hPa NE 1.6 km/h 4.8 km/h 97% 0 mm
10:05 10.5 °C 10.1 °C 1018.5 hPa NE 1.6 km/h 4.8 km/h 97% 0 mm
10:10 10.5 °C 10.1 °C 1018.5 hPa Calm   4.8 km/h 97% 0 mm
10:15 10.6 °C 10.1 °C 1018.5 hPa NE 1.6 km/h 4.8 km/h 97% 0 mm
10:20 10.6 °C 10.1 °C 1018.5 hPa NE 1.6 km/h 6.4 km/h 97% 0 mm
10:25 10.7 °C 10.2 °C 1018.5 hPa NE 1.6 km/h 6.4 km/h 97% 0 mm
10:30 10.9 °C 10.4 °C 1018.5 hPa Calm   4.8 km/h 97% 0 mm
10:35 11.2 °C 10.7 °C 1018.5 hPa Calm   3.2 km/h 97% 0 mm
10:45 11.3 °C 10.8 °C 1018.8 hPa Calm   4.8 km/h 97% 0 mm
10:50 11.3 °C 10.8 °C 1018.5 hPa NE 1.6 km/h 6.4 km/h 97% 0 mm
10:55 11.2 °C 10.8 °C 1018.5 hPa NE 3.2 km/h 6.4 km/h 97% 0 mm
11:00 11.1 °C 10.6 °C 1018.5 hPa NE 1.6 km/h 9.7 km/h 97% 0 mm
11:05 11.1 °C 10.6 °C 1018.5 hPa NE 1.6 km/h 9.7 km/h 97% 0 mm
11:10 10.9 °C 10.3 °C 1018.5 hPa Calm   8 km/h 96% 0 mm
11:15 11.1 °C 10.6 °C 1018.5 hPa NE 1.6 km/h 8 km/h 97% 0 mm
11:20 11.1 °C 10.5 °C 1018.5 hPa NE 1.6 km/h 8 km/h 96% 0 mm
11:25 11.2 °C 10.6 °C 1018.8 hPa NE 4.8 km/h 8 km/h 96% 0 mm
11:30 11.2 °C 10.6 °C 1018.8 hPa NE 4.8 km/h 9.7 km/h 96% 0 mm
11:35 11.2 °C 10.6 °C 1018.8 hPa Calm   9.7 km/h 96% 0 mm
11:40 11.3 °C 10.7 °C 1018.8 hPa Calm   8 km/h 96% 0 mm
11:45 11.4 °C 10.8 °C 1018.8 hPa NE 1.6 km/h 8 km/h 96% 0 mm
11:50 11.6 °C 11 °C 1018.8 hPa NE 3.2 km/h 8 km/h 96% 0 mm
11:55 11.8 °C 11.2 °C 1018.8 hPa NE 3.2 km/h 9.7 km/h 96% 0 mm
12:05 12.1 °C 11.4 °C 1018.8 hPa Calm   11.3 km/h 96% 0 mm
12:10 12.6 °C 12 °C 1018.5 hPa NNE 3.2 km/h 8 km/h 96% 0 mm
12:15 12.9 °C 12.3 °C 1018.5 hPa Calm   8 km/h 96% 0 mm
12:20 13.2 °C 12.4 °C 1018.5 hPa NNE 8 km/h 12.9 km/h 95% 0 mm
12:25 13.7 °C 12.7 °C 1018.5 hPa East 1.6 km/h 12.9 km/h 94% 0 mm
12:30 14.1 °C 12.9 °C 1018.5 hPa NE 1.6 km/h 8 km/h 93% 0 mm
12:35 14 °C 12.4 °C 1018.5 hPa ENE 3.2 km/h 11.3 km/h 90% 0 mm
12:40 14.1 °C 12.1 °C 1018.5 hPa Calm   11.3 km/h 88% 0 mm
12:45 14.4 °C 12.4 °C 1018.5 hPa NE 3.2 km/h 11.3 km/h 88% 0 mm
12:50 14.8 °C 12.8 °C 1018.5 hPa NNE 6.4 km/h 12.9 km/h 88% 0 mm
12:55 14.9 °C 12.6 °C 1018.5 hPa NNE 6.4 km/h 12.9 km/h 86% 0 mm
13:00 15 °C 12.5 °C 1018.5 hPa NE 4.8 km/h 12.9 km/h 85% 0 mm
13:05 15.1 °C 12.8 °C 1018.5 hPa NE 3.2 km/h 12.9 km/h 86% 0 mm
13:10 15.2 °C 12.3 °C 1018.8 hPa NE 6.4 km/h 14.5 km/h 83% 0 mm
13:15 15 °C 12.1 °C 1018.8 hPa ESE 6.4 km/h 14.5 km/h 83% 0 mm
13:20 15.2 °C 12.7 °C 1018.5 hPa NE 1.6 km/h 12.9 km/h 85% 0 mm
13:25 15.4 °C 12.7 °C 1018.5 hPa NNE 4.8 km/h 12.9 km/h 84% 0 mm
13:30 15.6 °C 12.7 °C 1018.5 hPa NNE 6.4 km/h 12.9 km/h 83% 0 mm
13:35 15.4 °C 12.2 °C 1018.5 hPa East 4.8 km/h 12.9 km/h 81% 0 mm
13:40 15.2 °C 12.2 °C 1018.5 hPa NE 3.2 km/h 12.9 km/h 82% 0 mm
13:45 15.3 °C 12.8 °C 1018.5 hPa NE 1.6 km/h 12.9 km/h 85% 0 mm
13:50 15.4 °C 12.6 °C 1018.5 hPa NNE 4.8 km/h 11.3 km/h 83% 0 mm
13:55 15.5 °C 12.8 °C 1018.5 hPa NE 1.6 km/h 9.7 km/h 84% 0 mm
14:00 15.8 °C 12.9 °C 1018.5 hPa NE 3.2 km/h 9.7 km/h 83% 0 mm
14:05 15.9 °C 13 °C 1018.5 hPa NNE 4.8 km/h 12.9 km/h 83% 0 mm
14:10 16.1 °C 13.3 °C 1018.2 hPa NW 1.6 km/h 12.9 km/h 84% 0 mm
14:15 16.3 °C 13.2 °C 1018.2 hPa NNE 3.2 km/h 9.7 km/h 82% 0 mm
14:20 16.4 °C 13.1 °C 1018.5 hPa NNE 4.8 km/h 14.5 km/h 81% 0 mm
14:25 16.7 °C 13.8 °C 1018.2 hPa Calm   14.5 km/h 83% 0 mm
14:30 16.5 °C 13.6 °C 1018.2 hPa NNE 3.2 km/h 11.3 km/h 83% 0 mm
14:35 16.2 °C 13.3 °C 1018.5 hPa NE 1.6 km/h 12.9 km/h 83% 0 mm
14:40 16.2 °C 13.3 °C 1018.2 hPa NE 3.2 km/h 12.9 km/h 83% 0 mm
14:45 16.2 °C 13.3 °C 1018.2 hPa ENE 1.6 km/h 11.3 km/h 83% 0 mm
14:50 16.1 °C 13.2 °C 1018.5 hPa ENE 1.6 km/h 11.3 km/h 83% 0 mm
14:55 16 °C 13.3 °C 1018.5 hPa NE 3.2 km/h 11.3 km/h 84% 0 mm
15:00 16.1 °C 13.2 °C 1018.5 hPa NNE 4.8 km/h 12.9 km/h 83% 0 mm
15:05 16.2 °C 13.3 °C 1018.5 hPa Calm   12.9 km/h 83% 0 mm
15:10 16.1 °C 13.2 °C 1018.5 hPa NE 3.2 km/h 8 km/h 83% 0 mm
15:20 16.1 °C 13.4 °C 1018.5 hPa NE 1.6 km/h 11.3 km/h 84% 0 mm
15:25 16.3 °C 13.4 °C 1018.5 hPa NE 3.2 km/h 11.3 km/h 83% 0 mm
15:30 16.4 °C 13.6 °C 1018.2 hPa ENE 1.6 km/h 11.3 km/h 83% 0 mm
15:35 16.6 °C 13.5 °C 1018.5 hPa NE 3.2 km/h 11.3 km/h 82% 0 mm
15:40 16.5 °C 13.6 °C 1018.2 hPa ENE 3.2 km/h 8 km/h 83% 0 mm
15:45 16.6 °C 13.7 °C 1018.2 hPa Calm   11.3 km/h 83% 0 mm
15:50 16.8 °C 13.7 °C 1018.2 hPa Calm   11.3 km/h 82% 0 mm
15:55 16.8 °C 13.5 °C 1018.2 hPa ENE 1.6 km/h 8 km/h 81% 0 mm
16:00 16.8 °C 13.9 °C 1018.2 hPa ESE 1.6 km/h 8 km/h 83% 0 mm
16:05 16.8 °C 13.6 °C 1018.2 hPa Calm   8 km/h 81% 0 mm
16:10 16.9 °C 14 °C 1018.2 hPa NE 3.2 km/h 12.9 km/h 83% 0 mm
16:20 17.1 °C 13.8 °C 1018.2 hPa NE 1.6 km/h 8 km/h 81% 0 mm
16:25 16.9 °C 13.5 °C 1018.2 hPa ENE 1.6 km/h 4.8 km/h 80% 0 mm
16:30 16.9 °C 13.6 °C 1018.2 hPa Calm   4.8 km/h 81% 0 mm
16:35 16.9 °C 13.8 °C 1018.2 hPa NE 3.2 km/h 11.3 km/h 82% 0 mm
16:40 16.8 °C 13.6 °C 1018.2 hPa ENE 3.2 km/h 11.3 km/h 81% 0 mm
16:45 16.9 °C 13.8 °C 1018.2 hPa NE 3.2 km/h 11.3 km/h 82% 0 mm
16:50 17 °C 13.9 °C 1018.2 hPa NNE 3.2 km/h 9.7 km/h 82% 0 mm
16:55 17.2 °C 14.1 °C 1018.2 hPa Calm   9.7 km/h 82% 0 mm
17:00 17.4 °C 14.6 °C 1018.2 hPa Calm   6.4 km/h 83% 0 mm
17:05 17.6 °C 14.1 °C 1017.8 hPa Calm   9.7 km/h 80% 0 mm
17:15 17.6 °C 14.1 °C 1018.2 hPa East 4.8 km/h 9.7 km/h 80% 0 mm
17:20 17.4 °C 14.2 °C 1018.2 hPa NNE 1.6 km/h 9.7 km/h 81% 0 mm
17:25 17.4 °C 13.9 °C 1018.2 hPa Calm   6.4 km/h 80% 0 mm
17:30 17.3 °C 13.8 °C 1018.2 hPa NNE 4.8 km/h 8 km/h 80% 0 mm
17:35 17.3 °C 14 °C 1018.2 hPa Calm   8 km/h 81% 0 mm
17:40 17.4 °C 14.3 °C 1018.2 hPa Calm   3.2 km/h 82% 0 mm
17:45 17.2 °C 14.1 °C 1018.2 hPa Calm   8 km/h 82% 0 mm
17:50 16.9 °C 14.1 °C 1018.2 hPa Calm   8 km/h 83% 0 mm
17:55 16.6 °C 13.7 °C 1018.2 hPa Calm   3.2 km/h 83% 0 mm
18:00 16.3 °C 13.6 °C 1018.2 hPa Calm   3.2 km/h 84% 0 mm
18:05 16.2 °C 13.7 °C 1018.2 hPa Calm     85% 0 mm
18:10 16.1 °C 13.8 °C 1018.2 hPa Calm     86% 0 mm
18:15 16 °C 13.5 °C 1018.2 hPa NW 1.6 km/h 4.8 km/h 85% 0 mm
18:20 15.8 °C 13.5 °C 1018.2 hPa Calm   4.8 km/h 86% 0 mm
18:25 15.8 °C 13.4 °C 1018.2 hPa Calm     86% 0 mm
18:30 15.7 °C 13.3 °C 1018.5 hPa Calm     86% 0 mm
18:35 15.7 °C 13.5 °C 1018.5 hPa NW 1.6 km/h 3.2 km/h 87% 0 mm
18:40 15.6 °C 13.4 °C 1018.5 hPa Calm   3.2 km/h 87% 0 mm
18:45 15.5 °C 13.3 °C 1018.5 hPa Calm     87% 0 mm
18:50 15.4 °C 13.3 °C 1018.5 hPa Calm     87% 0 mm
18:55 15.3 °C 13.3 °C 1018.5 hPa Calm     88% 0 mm
19:00 15.2 °C 13.2 °C 1018.5 hPa Calm     88% 0 mm
19:05 15.1 °C 13.2 °C 1018.5 hPa Calm   1.6 km/h 88% 0 mm
19:10 15 °C 13.2 °C 1018.5 hPa Calm   1.6 km/h 89% 0 mm
19:15 15 °C 13.2 °C 1018.5 hPa NW 1.6 km/h 4.8 km/h 89% 0 mm
19:20 15 °C 13.2 °C 1018.5 hPa Calm   4.8 km/h 89% 0 mm
19:25 14.8 °C 13.1 °C 1018.5 hPa Calm   4.8 km/h 89% 0 mm
19:30 14.8 °C 13 °C 1018.5 hPa Calm     89% 0 mm
19:35 14.7 °C 12.9 °C 1018.5 hPa Calm   1.6 km/h 89% 0 mm
19:40 14.6 °C 12.8 °C 1018.5 hPa Calm   4.8 km/h 89% 0 mm
19:45 14.5 °C 12.7 °C 1018.5 hPa Calm   4.8 km/h 89% 0 mm
19:50 14.4 °C 12.6 °C 1018.5 hPa Calm   3.2 km/h 89% 0 mm
19:55 14.3 °C 12.7 °C 1018.5 hPa Calm   3.2 km/h 90% 0 mm
20:00 14.3 °C 12.7 °C 1018.5 hPa Calm     90% 0 mm
20:05 14.2 °C 12.6 °C 1018.5 hPa Calm     90% 0 mm
20:10 14.2 °C 12.7 °C 1018.5 hPa Calm     91% 0 mm
20:15 14.2 °C 12.7 °C 1018.5 hPa Calm     91% 0 mm
20:20 14.1 °C 12.6 °C 1018.5 hPa Calm     91% 0 mm
20:25 13.9 °C 12.5 °C 1018.2 hPa Calm     91% 0 mm
20:30 13.8 °C 12.4 °C 1018.2 hPa Calm     91% 0 mm
20:40 13.7 °C 12.4 °C 1018.2 hPa Calm   1.6 km/h 92% 0 mm
20:45 13.7 °C 12.6 °C 1018.2 hPa Calm     93% 0 mm
20:50 13.7 °C 12.6 °C 1018.5 hPa Calm     93% 0 mm
21:00 13.6 °C 12.5 °C 1018.5 hPa Calm     93% 0 mm
21:05 13.6 °C 12.5 °C 1018.5 hPa Calm     93% 0 mm
21:10 13.6 °C 12.5 °C 1018.5 hPa Calm     93% 0 mm
21:15 13.6 °C 12.5 °C 1018.5 hPa Calm     93% 0 mm
21:20 13.6 °C 12.6 °C 1018.5 hPa Calm     94% 0 mm
21:25 13.6 °C 12.6 °C 1018.5 hPa Calm     94% 0 mm
21:35 13.4 °C 12.5 °C 1018.8 hPa Calm   4.8 km/h 94% 0 mm
21:40 13.3 °C 12.4 °C 1018.8 hPa Calm   4.8 km/h 94% 0 mm
21:45 13.3 °C 12.3 °C 1018.8 hPa Calm     94% 0 mm
21:50 13.3 °C 12.3 °C 1018.8 hPa Calm     94% 0 mm
21:55 13.3 °C 12.3 °C 1018.5 hPa Calm     94% 0 mm
22:00 13.2 °C 12.3 °C 1018.8 hPa Calm   1.6 km/h 94% 0 mm
22:05 13.1 °C 12.1 °C 1018.5 hPa NNW 3.2 km/h 6.4 km/h 94% 0 mm
22:10 12.9 °C 11.8 °C 1018.5 hPa Calm   6.4 km/h 93% 0 mm
22:15 12.9 °C 12 °C 1018.5 hPa NNW 1.6 km/h 3.2 km/h 94% 0 mm
22:20 13.1 °C 12.1 °C 1018.5 hPa SW 1.6 km/h 8 km/h 94% 0 mm
22:25 13.5 °C 12.7 °C 1018.5 hPa Calm   8 km/h 95% 0 mm
22:30 13.8 °C 13 °C 1018.5 hPa South 1.6 km/h 6.4 km/h 95% 0 mm
22:35 14.1 °C 13.3 °C 1018.8 hPa SSW 1.6 km/h 9.7 km/h 95% 0 mm
22:40 14.2 °C 13.3 °C 1018.5 hPa South 1.6 km/h 9.7 km/h 94% 0 mm
22:45 14.4 °C 13.3 °C 1018.5 hPa South 6.4 km/h 11.3 km/h 93% 0 mm
22:50 14.7 °C 13.3 °C 1018.8 hPa SSE 8 km/h 16.1 km/h 91% 0 mm
22:55 15 °C 13.7 °C 1018.8 hPa South 6.4 km/h 16.1 km/h 92% 0 mm
23:00 15 °C 13.2 °C 1018.8 hPa South 3.2 km/h 16.1 km/h 89% 0 mm
23:05 15 °C 13.2 °C 1018.8 hPa South 3.2 km/h 12.9 km/h 89% 0 mm
23:15 14.9 °C 13.2 °C 1018.8 hPa SSW 4.8 km/h 9.7 km/h 89% 0 mm
23:20 14.9 °C 13.1 °C 1018.8 hPa SW 3.2 km/h 9.7 km/h 89% 0 mm
23:25 14.8 °C 13.1 °C 1018.8 hPa SSW 1.6 km/h 8 km/h 89% 0 mm
23:30 14.7 °C 12.9 °C 1018.8 hPa SSW 3.2 km/h 8 km/h 89% 0 mm
23:35 14.7 °C 12.9 °C 1018.8 hPa SW 1.6 km/h 8 km/h 89% 0 mm
23:40 14.5 °C 12.7 °C 1018.8 hPa SSW 3.2 km/h 6.4 km/h 89% 0 mm
23:45 14.4 °C 12.7 °C 1018.8 hPa SSW 1.6 km/h 11.3 km/h 89% 0 mm
23:50 14.4 °C 12.7 °C 1018.5 hPa Calm   11.3 km/h 89% 0 mm
23:55 14.4 °C 12.7 °C 1018.8 hPa SSW 1.6 km/h 12.9 km/h 89% 0 mm
Westford Weather
Compliments of Weather Underground

 
 
Current Radar Loop:

Copyright © WestfordWeather.net 2007-2014. All rights reserved.